sensor_id;sensor_type;location;lat;lon;timestamp;pressure;altitude;pressure_sealevel;temperature;humidity
40372;BME280;28564;53.346;-6.554;2022-12-29T00:00:45;97985.89;;;8.58;55.11
40372;BME280;28564;53.346;-6.554;2022-12-29T00:03:13;97988.57;;;8.99;55.29
40372;BME280;28564;53.346;-6.554;2022-12-29T00:05:40;97989.35;;;8.97;55.31
40372;BME280;28564;53.346;-6.554;2022-12-29T00:08:07;97996.25;;;8.50;55.37
40372;BME280;28564;53.346;-6.554;2022-12-29T00:10:34;97998.18;;;8.69;55.45
40372;BME280;28564;53.346;-6.554;2022-12-29T00:13:02;98002.33;;;8.64;55.57
40372;BME280;28564;53.346;-6.554;2022-12-29T00:15:29;98019.97;;;8.39;55.72
40372;BME280;28564;53.346;-6.554;2022-12-29T00:17:56;98017.47;;;8.38;55.72
40372;BME280;28564;53.346;-6.554;2022-12-29T00:20:23;98031.37;;;8.77;55.78
40372;BME280;28564;53.346;-6.554;2022-12-29T00:22:51;98025.04;;;8.73;56.03
40372;BME280;28564;53.346;-6.554;2022-12-29T00:25:18;98024.33;;;8.75;56.12
40372;BME280;28564;53.346;-6.554;2022-12-29T00:27:45;98032.29;;;8.34;55.96
40372;BME280;28564;53.346;-6.554;2022-12-29T00:30:14;98027.33;;;8.53;56.02
40372;BME280;28564;53.346;-6.554;2022-12-29T00:32:42;98037.14;;;8.51;56.00
40372;BME280;28564;53.346;-6.554;2022-12-29T00:35:11;98045.21;;;8.50;56.08
40372;BME280;28564;53.346;-6.554;2022-12-29T00:37:42;98048.22;;;8.24;56.04
40372;BME280;28564;53.346;-6.554;2022-12-29T00:40:09;98047.18;;;8.43;56.07
40372;BME280;28564;53.346;-6.554;2022-12-29T00:42:37;98036.92;;;8.66;55.93
40372;BME280;28564;53.346;-6.554;2022-12-29T00:45:05;98061.40;;;8.67;55.85
40372;BME280;28564;53.346;-6.554;2022-12-29T00:47:32;98051.31;;;8.44;55.73
40372;BME280;28564;53.346;-6.554;2022-12-29T00:49:59;98063.67;;;8.45;55.67
40372;BME280;28564;53.346;-6.554;2022-12-29T00:52:27;98055.82;;;8.45;55.58
40372;BME280;28564;53.346;-6.554;2022-12-29T00:54:54;98052.63;;;8.44;55.46
40372;BME280;28564;53.346;-6.554;2022-12-29T00:57:22;98064.23;;;8.65;55.42
40372;BME280;28564;53.346;-6.554;2022-12-29T00:59:49;98061.71;;;8.43;55.30
40372;BME280;28564;53.346;-6.554;2022-12-29T01:02:16;98075.66;;;8.66;55.33
40372;BME280;28564;53.346;-6.554;2022-12-29T01:04:43;98080.80;;;8.68;55.12
40372;BME280;28564;53.346;-6.554;2022-12-29T01:07:11;98083.98;;;8.67;55.05
40372;BME280;28564;53.346;-6.554;2022-12-29T01:09:38;98086.08;;;8.45;54.97
40372;BME280;28564;53.346;-6.554;2022-12-29T01:12:07;98096.23;;;8.46;54.96
40372;BME280;28564;53.346;-6.554;2022-12-29T01:14:34;98090.22;;;8.69;54.91
40372;BME280;28564;53.346;-6.554;2022-12-29T01:17:02;98092.04;;;8.66;54.81
40372;BME280;28564;53.346;-6.554;2022-12-29T01:19:29;98101.78;;;8.62;54.84
40372;BME280;28564;53.346;-6.554;2022-12-29T01:21:56;98105.56;;;8.38;54.94
40372;BME280;28564;53.346;-6.554;2022-12-29T01:24:23;98098.75;;;8.59;54.90
40372;BME280;28564;53.346;-6.554;2022-12-29T01:26:51;98097.90;;;8.34;54.84
40372;BME280;28564;53.346;-6.554;2022-12-29T01:29:18;98104.84;;;8.58;54.75
40372;BME280;28564;53.346;-6.554;2022-12-29T01:31:45;98113.89;;;8.56;54.75
40372;BME280;28564;53.346;-6.554;2022-12-29T01:34:13;98121.42;;;8.54;54.73
40372;BME280;28564;53.346;-6.554;2022-12-29T01:36:40;98115.36;;;8.28;54.76
40372;BME280;28564;53.346;-6.554;2022-12-29T01:39:07;98117.87;;;8.49;54.69
40372;BME280;28564;53.346;-6.554;2022-12-29T01:41:34;98121.78;;;8.23;54.66
40372;BME280;28564;53.346;-6.554;2022-12-29T01:44:02;98113.07;;;8.43;54.69
40372;BME280;28564;53.346;-6.554;2022-12-29T01:46:32;98121.28;;;8.43;54.63
40372;BME280;28564;53.346;-6.554;2022-12-29T01:49:10;98126.22;;;8.28;54.41
40372;BME280;28564;53.346;-6.554;2022-12-29T01:51:40;98132.41;;;8.54;54.17
40372;BME280;28564;53.346;-6.554;2022-12-29T01:54:13;98153.46;;;8.53;54.15
40372;BME280;28564;53.346;-6.554;2022-12-29T01:56:44;98142.04;;;8.52;54.17
40372;BME280;28564;53.346;-6.554;2022-12-29T01:59:17;98154.19;;;8.24;54.26
40372;BME280;28564;53.346;-6.554;2022-12-29T02:01:46;98175.66;;;8.41;54.38
40372;BME280;28564;53.346;-6.554;2022-12-29T02:04:14;98159.74;;;8.14;54.44
40372;BME280;28564;53.346;-6.554;2022-12-29T02:06:45;98173.01;;;8.35;54.47
40372;BME280;28564;53.346;-6.554;2022-12-29T02:09:13;98180.60;;;8.34;54.54
40372;BME280;28564;53.346;-6.554;2022-12-29T02:11:40;98177.71;;;8.11;54.61
40372;BME280;28564;53.346;-6.554;2022-12-29T02:14:09;98181.96;;;8.33;54.62
40372;BME280;28564;53.346;-6.554;2022-12-29T02:16:48;98186.70;;;8.33;54.62
40372;BME280;28564;53.346;-6.554;2022-12-29T02:21:48;98179.55;;;8.76;54.76
40372;BME280;28564;53.346;-6.554;2022-12-29T02:25:10;98188.04;;;8.38;54.61
40372;BME280;28564;53.346;-6.554;2022-12-29T02:28:23;98202.09;;;8.44;54.34
40372;BME280;28564;53.346;-6.554;2022-12-29T02:31:06;98191.63;;;8.46;54.18
40372;BME280;28564;53.346;-6.554;2022-12-29T02:33:43;98210.07;;;8.48;54.05
40372;BME280;28564;53.346;-6.554;2022-12-29T02:36:24;98203.82;;;8.51;53.89
40372;BME280;28564;53.346;-6.554;2022-12-29T02:39:02;98208.07;;;8.51;53.77
40372;BME280;28564;53.346;-6.554;2022-12-29T02:41:34;98208.99;;;8.51;53.71
40372;BME280;28564;53.346;-6.554;2022-12-29T02:44:11;98209.86;;;8.53;53.70
40372;BME280;28564;53.346;-6.554;2022-12-29T02:46:47;98219.41;;;8.31;53.71
40372;BME280;28564;53.346;-6.554;2022-12-29T02:49:22;98227.85;;;8.35;53.77
40372;BME280;28564;53.346;-6.554;2022-12-29T02:51:57;98239.45;;;8.18;53.72
40372;BME280;28564;53.346;-6.554;2022-12-29T02:54:26;98236.35;;;8.53;53.41
40372;BME280;28564;53.346;-6.554;2022-12-29T02:56:53;98243.69;;;8.81;53.21
40372;BME280;28564;53.346;-6.554;2022-12-29T02:59:20;98253.27;;;8.55;53.13
40372;BME280;28564;53.346;-6.554;2022-12-29T03:02:05;98250.47;;;8.73;53.12
40372;BME280;28564;53.346;-6.554;2022-12-29T03:04:39;98262.13;;;8.47;53.05
40372;BME280;28564;53.346;-6.554;2022-12-29T03:07:14;98259.65;;;8.66;53.00
40372;BME280;28564;53.346;-6.554;2022-12-29T03:09:49;98271.96;;;8.44;52.98
40372;BME280;28564;53.346;-6.554;2022-12-29T03:12:26;98275.58;;;8.69;52.96
40372;BME280;28564;53.346;-6.554;2022-12-29T03:15:02;98271.26;;;8.70;52.95
40372;BME280;28564;53.346;-6.554;2022-12-29T03:17:40;98289.25;;;8.76;52.76
40372;BME280;28564;53.346;-6.554;2022-12-29T03:20:14;98276.58;;;8.55;52.65
40372;BME280;28564;53.346;-6.554;2022-12-29T03:22:48;98280.71;;;8.78;52.57
40372;BME280;28564;53.346;-6.554;2022-12-29T03:25:20;98288.33;;;8.77;52.59
40372;BME280;28564;53.346;-6.554;2022-12-29T03:27:52;98289.81;;;8.55;52.72
40372;BME280;28564;53.346;-6.554;2022-12-29T03:30:20;98301.53;;;8.76;52.83
40372;BME280;28564;53.346;-6.554;2022-12-29T03:32:50;98293.12;;;8.78;52.83
40372;BME280;28564;53.346;-6.554;2022-12-29T03:35:22;98306.83;;;8.76;52.86
40372;BME280;28564;53.346;-6.554;2022-12-29T03:37:54;98306.04;;;8.77;52.86
40372;BME280;28564;53.346;-6.554;2022-12-29T03:40:23;98320.09;;;8.74;53.01
40372;BME280;28564;53.346;-6.554;2022-12-29T03:42:51;98319.34;;;8.51;53.08
40372;BME280;28564;53.346;-6.554;2022-12-29T03:45:19;98322.66;;;8.52;53.28
40372;BME280;28564;53.346;-6.554;2022-12-29T03:47:47;98328.83;;;8.59;53.38
40372;BME280;28564;53.346;-6.554;2022-12-29T03:50:15;98330.99;;;8.46;53.31
40372;BME280;28564;53.346;-6.554;2022-12-29T03:52:42;98330.71;;;8.93;53.16
40372;BME280;28564;53.346;-6.554;2022-12-29T03:55:09;98333.41;;;8.95;53.28
40372;BME280;28564;53.346;-6.554;2022-12-29T03:57:36;98339.91;;;8.94;53.21
40372;BME280;28564;53.346;-6.554;2022-12-29T04:00:06;98340.95;;;8.69;53.21
40372;BME280;28564;53.346;-6.554;2022-12-29T04:02:34;98340.34;;;8.85;53.36
40372;BME280;28564;53.346;-6.554;2022-12-29T04:05:01;98361.19;;;8.62;53.31
40372;BME280;28564;53.346;-6.554;2022-12-29T04:07:28;98348.44;;;8.80;53.30
40372;BME280;28564;53.346;-6.554;2022-12-29T04:09:55;98360.94;;;8.55;53.33
40372;BME280;28564;53.346;-6.554;2022-12-29T04:12:23;98361.93;;;8.50;53.33
40372;BME280;28564;53.346;-6.554;2022-12-29T04:14:50;98370.82;;;8.73;53.19
40372;BME280;28564;53.346;-6.554;2022-12-29T04:17:17;98368.80;;;8.68;53.28
40372;BME280;28564;53.346;-6.554;2022-12-29T04:19:45;98370.82;;;8.69;53.21
40372;BME280;28564;53.346;-6.554;2022-12-29T04:22:12;98380.41;;;8.69;53.14
40372;BME280;28564;53.346;-6.554;2022-12-29T04:24:39;98381.76;;;8.46;53.14
40372;BME280;28564;53.346;-6.554;2022-12-29T04:27:06;98373.96;;;8.44;53.12
40372;BME280;28564;53.346;-6.554;2022-12-29T04:29:34;98385.69;;;8.63;53.04
40372;BME280;28564;53.346;-6.554;2022-12-29T04:32:01;98396.76;;;8.61;52.93
40372;BME280;28564;53.346;-6.554;2022-12-29T04:34:28;98414.80;;;8.59;52.87
40372;BME280;28564;53.346;-6.554;2022-12-29T04:36:55;98399.92;;;8.58;52.80
40372;BME280;28564;53.346;-6.554;2022-12-29T04:39:23;98406.36;;;8.55;52.81
40372;BME280;28564;53.346;-6.554;2022-12-29T04:41:50;98407.08;;;8.52;52.85
40372;BME280;28564;53.346;-6.554;2022-12-29T04:44:17;98413.52;;;8.48;52.94
40372;BME280;28564;53.346;-6.554;2022-12-29T04:46:45;98406.73;;;8.43;53.00
40372;BME280;28564;53.346;-6.554;2022-12-29T04:49:12;98412.34;;;8.42;52.96
40372;BME280;28564;53.346;-6.554;2022-12-29T04:51:39;98413.94;;;8.38;52.96
40372;BME280;28564;53.346;-6.554;2022-12-29T04:54:06;98420.41;;;8.37;52.90
40372;BME280;28564;53.346;-6.554;2022-12-29T04:56:34;98422.35;;;8.36;52.77
40372;BME280;28564;53.346;-6.554;2022-12-29T04:59:01;98430.82;;;8.34;52.72
40372;BME280;28564;53.346;-6.554;2022-12-29T05:01:28;98429.94;;;8.42;52.69
40372;BME280;28564;53.346;-6.554;2022-12-29T05:03:56;98432.06;;;8.35;52.18
40372;BME280;28564;53.346;-6.554;2022-12-29T05:06:23;98429.88;;;8.37;51.96
40372;BME280;28564;53.346;-6.554;2022-12-29T05:08:50;98438.09;;;8.36;51.68
40372;BME280;28564;53.346;-6.554;2022-12-29T05:11:18;98440.02;;;8.31;51.46
40372;BME280;28564;53.346;-6.554;2022-12-29T05:13:45;98441.44;;;7.98;51.44
40372;BME280;28564;53.346;-6.554;2022-12-29T05:16:12;98440.30;;;8.09;51.48
40372;BME280;28564;53.346;-6.554;2022-12-29T05:18:39;98438.85;;;8.19;51.69
40372;BME280;28564;53.346;-6.554;2022-12-29T05:21:07;98441.64;;;7.95;51.49
40372;BME280;28564;53.346;-6.554;2022-12-29T05:23:34;98441.52;;;7.89;51.39
40372;BME280;28564;53.346;-6.554;2022-12-29T05:26:01;98437.07;;;8.05;51.32
40372;BME280;28564;53.346;-6.554;2022-12-29T05:28:29;98432.74;;;7.95;51.38
40372;BME280;28564;53.346;-6.554;2022-12-29T05:30:56;98430.44;;;7.90;51.35
40372;BME280;28564;53.346;-6.554;2022-12-29T05:33:23;98430.70;;;7.87;51.29
40372;BME280;28564;53.346;-6.554;2022-12-29T05:35:50;98428.60;;;7.82;51.25
40372;BME280;28564;53.346;-6.554;2022-12-29T05:38:18;98431.82;;;7.81;51.24
40372;BME280;28564;53.346;-6.554;2022-12-29T05:40:45;98441.55;;;7.78;51.18
40372;BME280;28564;53.346;-6.554;2022-12-29T05:43:12;98433.73;;;7.76;50.95
40372;BME280;28564;53.346;-6.554;2022-12-29T05:45:40;98431.16;;;7.77;50.63
40372;BME280;28564;53.346;-6.554;2022-12-29T05:48:07;98441.90;;;7.80;49.99
40372;BME280;28564;53.346;-6.554;2022-12-29T05:50:34;98437.70;;;7.82;49.66
40372;BME280;28564;53.346;-6.554;2022-12-29T05:53:01;98437.08;;;7.84;49.42
40372;BME280;28564;53.346;-6.554;2022-12-29T05:55:29;98450.22;;;7.82;49.47
40372;BME280;28564;53.346;-6.554;2022-12-29T05:57:56;98449.63;;;7.81;49.48
40372;BME280;28564;53.346;-6.554;2022-12-29T06:00:23;98453.55;;;7.79;49.39
40372;BME280;28564;53.346;-6.554;2022-12-29T06:02:51;98469.08;;;7.79;49.36
40372;BME280;28564;53.346;-6.554;2022-12-29T06:05:18;98464.92;;;7.85;49.32
40372;BME280;28564;53.346;-6.554;2022-12-29T06:07:45;98471.99;;;7.89;49.59
40372;BME280;28564;53.346;-6.554;2022-12-29T06:10:13;98461.39;;;7.97;49.53
40372;BME280;28564;53.346;-6.554;2022-12-29T06:12:40;98469.19;;;8.02;49.89
40372;BME280;28564;53.346;-6.554;2022-12-29T06:15:08;98462.02;;;8.01;50.10
40372;BME280;28564;53.346;-6.554;2022-12-29T06:17:35;98460.63;;;7.94;50.15
40372;BME280;28564;53.346;-6.554;2022-12-29T06:20:03;98465.75;;;7.84;50.29
40372;BME280;28564;53.346;-6.554;2022-12-29T06:22:31;98470.14;;;7.81;50.30
40372;BME280;28564;53.346;-6.554;2022-12-29T06:24:58;98467.95;;;7.84;50.48
40372;BME280;28564;53.346;-6.554;2022-12-29T06:27:25;98461.37;;;7.86;50.37
40372;BME280;28564;53.346;-6.554;2022-12-29T06:29:53;98469.16;;;7.86;50.31
40372;BME280;28564;53.346;-6.554;2022-12-29T06:32:20;98470.41;;;8.12;50.40
40372;BME280;28564;53.346;-6.554;2022-12-29T06:34:48;98473.60;;;7.92;50.45
40372;BME280;28564;53.346;-6.554;2022-12-29T06:37:15;98476.43;;;7.96;50.37
40372;BME280;28564;53.346;-6.554;2022-12-29T06:39:42;98481.55;;;8.03;50.51
40372;BME280;28564;53.346;-6.554;2022-12-29T06:42:09;98477.85;;;8.11;51.09
40372;BME280;28564;53.346;-6.554;2022-12-29T06:44:36;98480.96;;;7.85;51.52
40372;BME280;28564;53.346;-6.554;2022-12-29T06:47:04;98473.98;;;8.00;51.62
40372;BME280;28564;53.346;-6.554;2022-12-29T06:49:31;98485.37;;;7.89;51.77
40372;BME280;28564;53.346;-6.554;2022-12-29T06:51:58;98498.51;;;7.80;51.59
40372;BME280;28564;53.346;-6.554;2022-12-29T06:54:26;98492.35;;;7.99;51.46
40372;BME280;28564;53.346;-6.554;2022-12-29T06:56:53;98508.75;;;7.68;51.30
40372;BME280;28564;53.346;-6.554;2022-12-29T06:59:20;98496.70;;;7.85;51.30
40372;BME280;28564;53.346;-6.554;2022-12-29T07:01:48;98497.86;;;7.50;51.34
40372;BME280;28564;53.346;-6.554;2022-12-29T07:04:15;98509.49;;;7.44;51.43
40372;BME280;28564;53.346;-6.554;2022-12-29T07:06:42;98516.63;;;7.47;51.29
40372;BME280;28564;53.346;-6.554;2022-12-29T07:09:10;98513.20;;;7.52;51.16
40372;BME280;28564;53.346;-6.554;2022-12-29T07:11:38;98519.44;;;7.57;50.98
40372;BME280;28564;53.346;-6.554;2022-12-29T07:14:05;98515.51;;;7.61;50.92
40372;BME280;28564;53.346;-6.554;2022-12-29T07:16:32;98525.96;;;7.63;50.72
40372;BME280;28564;53.346;-6.554;2022-12-29T07:18:59;98530.57;;;7.62;50.33
40372;BME280;28564;53.346;-6.554;2022-12-29T07:21:27;98533.24;;;7.93;49.83
40372;BME280;28564;53.346;-6.554;2022-12-29T07:23:55;98538.93;;;7.69;49.80
40372;BME280;28564;53.346;-6.554;2022-12-29T07:26:22;98536.04;;;7.72;49.77
40372;BME280;28564;53.346;-6.554;2022-12-29T07:28:49;98536.25;;;7.70;49.72
40372;BME280;28564;53.346;-6.554;2022-12-29T07:31:18;98528.44;;;7.64;50.03
40372;BME280;28564;53.346;-6.554;2022-12-29T07:33:46;98529.76;;;7.87;50.45
40372;BME280;28564;53.346;-6.554;2022-12-29T07:36:14;98527.61;;;7.65;50.86
40372;BME280;28564;53.346;-6.554;2022-12-29T07:38:42;98531.19;;;7.74;50.96
40372;BME280;28564;53.346;-6.554;2022-12-29T07:41:09;98539.16;;;7.80;51.14
40372;BME280;28564;53.346;-6.554;2022-12-29T07:43:36;98538.04;;;7.82;51.69
40372;BME280;28564;53.346;-6.554;2022-12-29T07:46:04;98530.11;;;7.77;52.11
40372;BME280;28564;53.346;-6.554;2022-12-29T07:48:31;98538.35;;;7.80;52.08
40372;BME280;28564;53.346;-6.554;2022-12-29T07:50:58;98533.96;;;7.81;51.99
40372;BME280;28564;53.346;-6.554;2022-12-29T07:53:25;98534.65;;;7.77;52.00
40372;BME280;28564;53.346;-6.554;2022-12-29T07:55:52;98531.86;;;7.74;51.70
40372;BME280;28564;53.346;-6.554;2022-12-29T07:58:19;98540.01;;;7.42;51.58
40372;BME280;28564;53.346;-6.554;2022-12-29T08:00:47;98544.45;;;7.57;51.57
40372;BME280;28564;53.346;-6.554;2022-12-29T08:03:14;98524.60;;;7.52;51.61
40372;BME280;28564;53.346;-6.554;2022-12-29T08:05:41;98533.24;;;7.52;51.49
40372;BME280;28564;53.346;-6.554;2022-12-29T08:08:09;98522.86;;;7.54;51.56
40372;BME280;28564;53.346;-6.554;2022-12-29T08:10:36;98534.37;;;7.54;51.72
40372;BME280;28564;53.346;-6.554;2022-12-29T08:13:03;98539.16;;;7.61;51.21
40372;BME280;28564;53.346;-6.554;2022-12-29T08:15:31;98538.01;;;7.60;51.11
40372;BME280;28564;53.346;-6.554;2022-12-29T08:17:59;98554.06;;;7.62;51.03
40372;BME280;28564;53.346;-6.554;2022-12-29T08:20:26;98547.19;;;7.65;51.07
40372;BME280;28564;53.346;-6.554;2022-12-29T08:22:53;98550.70;;;7.66;51.13
40372;BME280;28564;53.346;-6.554;2022-12-29T08:25:21;98537.89;;;7.72;50.87
40372;BME280;28564;53.346;-6.554;2022-12-29T08:27:48;98540.06;;;7.70;50.73
40372;BME280;28564;53.346;-6.554;2022-12-29T08:30:15;98531.03;;;7.70;50.51
40372;BME280;28564;53.346;-6.554;2022-12-29T08:32:42;98537.12;;;7.63;50.52
40372;BME280;28564;53.346;-6.554;2022-12-29T08:35:10;98540.57;;;7.55;50.50
40372;BME280;28564;53.346;-6.554;2022-12-29T08:37:37;98549.45;;;7.94;50.72
40372;BME280;28564;53.346;-6.554;2022-12-29T08:40:06;98558.12;;;7.66;50.69
40372;BME280;28564;53.346;-6.554;2022-12-29T08:42:33;98558.93;;;7.62;50.86
40372;BME280;28564;53.346;-6.554;2022-12-29T08:45:01;98560.62;;;7.58;50.89
40372;BME280;28564;53.346;-6.554;2022-12-29T08:47:28;98566.25;;;7.27;51.01
40372;BME280;28564;53.346;-6.554;2022-12-29T08:49:55;98576.03;;;7.27;50.98
40372;BME280;28564;53.346;-6.554;2022-12-29T08:52:23;98590.70;;;7.21;50.99
40372;BME280;28564;53.346;-6.554;2022-12-29T08:54:51;98599.21;;;7.43;50.91
40372;BME280;28564;53.346;-6.554;2022-12-29T08:57:18;98597.91;;;7.15;50.80
40372;BME280;28564;53.346;-6.554;2022-12-29T08:59:45;98595.86;;;7.15;50.76
40372;BME280;28564;53.346;-6.554;2022-12-29T09:02:13;98610.07;;;7.12;50.72
40372;BME280;28564;53.346;-6.554;2022-12-29T09:04:40;98612.60;;;7.07;50.70
40372;BME280;28564;53.346;-6.554;2022-12-29T09:07:07;98630.44;;;7.32;50.66
40372;BME280;28564;53.346;-6.554;2022-12-29T09:09:34;98637.56;;;7.55;50.81
40372;BME280;28564;53.346;-6.554;2022-12-29T09:12:02;98646.66;;;7.12;50.63
40372;BME280;28564;53.346;-6.554;2022-12-29T09:14:29;98652.38;;;7.39;50.54
40372;BME280;28564;53.346;-6.554;2022-12-29T09:16:56;98650.92;;;7.14;50.70
40372;BME280;28564;53.346;-6.554;2022-12-29T09:19:24;98660.18;;;7.15;50.88
40372;BME280;28564;53.346;-6.554;2022-12-29T09:21:51;98658.04;;;7.25;50.94
40372;BME280;28564;53.346;-6.554;2022-12-29T09:24:18;98656.82;;;7.31;50.94
40372;BME280;28564;53.346;-6.554;2022-12-29T09:26:45;98655.12;;;7.39;50.90
40372;BME280;28564;53.346;-6.554;2022-12-29T09:29:13;98651.34;;;7.42;50.69
40372;BME280;28564;53.346;-6.554;2022-12-29T09:31:40;98662.55;;;7.37;50.78
40372;BME280;28564;53.346;-6.554;2022-12-29T09:34:07;98663.94;;;7.71;51.00
40372;BME280;28564;53.346;-6.554;2022-12-29T09:36:35;98661.34;;;7.49;50.82
40372;BME280;28564;53.346;-6.554;2022-12-29T09:39:02;98655.45;;;7.52;50.78
40372;BME280;28564;53.346;-6.554;2022-12-29T09:41:36;98656.18;;;7.58;50.66
40372;BME280;28564;53.346;-6.554;2022-12-29T09:44:13;98661.56;;;7.57;50.37
40372;BME280;28564;53.346;-6.554;2022-12-29T09:46:45;98663.96;;;7.53;50.41
40372;BME280;28564;53.346;-6.554;2022-12-29T09:49:22;98675.22;;;7.62;50.58
40372;BME280;28564;53.346;-6.554;2022-12-29T09:51:53;98681.86;;;7.75;50.49
40372;BME280;28564;53.346;-6.554;2022-12-29T09:54:34;98687.46;;;7.89;50.15
40372;BME280;28564;53.346;-6.554;2022-12-29T09:57:03;98691.03;;;7.95;50.15
40372;BME280;28564;53.346;-6.554;2022-12-29T09:59:38;98687.96;;;7.69;50.33
40372;BME280;28564;53.346;-6.554;2022-12-29T10:03:57;98672.19;;;8.06;49.56
40372;BME280;28564;53.346;-6.554;2022-12-29T10:06:28;98688.41;;;7.73;49.73
40372;BME280;28564;53.346;-6.554;2022-12-29T10:09:02;98703.12;;;8.08;50.13
40372;BME280;28564;53.346;-6.554;2022-12-29T10:11:49;98705.52;;;8.08;50.40
40372;BME280;28564;53.346;-6.554;2022-12-29T10:14:33;98727.90;;;8.10;50.41
40372;BME280;28564;53.346;-6.554;2022-12-29T10:17:11;98726.33;;;7.86;50.76
40372;BME280;28564;53.346;-6.554;2022-12-29T10:19:57;98715.45;;;8.03;51.16
40372;BME280;28564;53.346;-6.554;2022-12-29T10:22:38;98729.30;;;7.97;51.54
40372;BME280;28564;53.346;-6.554;2022-12-29T10:25:15;98730.18;;;7.98;51.81
40372;BME280;28564;53.346;-6.554;2022-12-29T10:27:46;98739.30;;;8.05;51.67
40372;BME280;28564;53.346;-6.554;2022-12-29T10:30:14;98754.31;;;7.83;51.95
40372;BME280;28564;53.346;-6.554;2022-12-29T10:32:46;98754.93;;;7.79;52.27
40372;BME280;28564;53.346;-6.554;2022-12-29T10:35:19;98771.28;;;7.96;52.55
40372;BME280;28564;53.346;-6.554;2022-12-29T10:37:52;98775.73;;;7.92;52.89
40372;BME280;28564;53.346;-6.554;2022-12-29T10:40:26;98784.59;;;7.87;53.14
40372;BME280;28564;53.346;-6.554;2022-12-29T10:42:56;98800.78;;;7.81;53.48
40372;BME280;28564;53.346;-6.554;2022-12-29T10:45:28;98818.46;;;7.71;53.86
40372;BME280;28564;53.346;-6.554;2022-12-29T10:48:00;98818.83;;;7.46;54.00
40372;BME280;28564;53.346;-6.554;2022-12-29T10:50:28;98821.70;;;7.73;54.33
40372;BME280;28564;53.346;-6.554;2022-12-29T10:52:56;98815.74;;;7.79;54.64
40372;BME280;28564;53.346;-6.554;2022-12-29T10:55:30;98797.02;;;7.91;54.60
40372;BME280;28564;53.346;-6.554;2022-12-29T10:58:02;98781.56;;;8.07;54.49
40372;BME280;28564;53.346;-6.554;2022-12-29T11:00:32;98781.34;;;8.22;54.34
40372;BME280;28564;53.346;-6.554;2022-12-29T11:03:17;98771.76;;;8.34;54.33
40372;BME280;28564;53.346;-6.554;2022-12-29T11:05:53;98769.73;;;8.34;54.06
40372;BME280;28564;53.346;-6.554;2022-12-29T11:08:25;98780.42;;;8.03;54.10
40372;BME280;28564;53.346;-6.554;2022-12-29T11:11:00;98778.62;;;8.20;53.75
40372;BME280;28564;53.346;-6.554;2022-12-29T11:13:29;98786.12;;;8.09;53.63
40372;BME280;28564;53.346;-6.554;2022-12-29T11:15:57;98781.60;;;7.84;53.73
40372;BME280;28564;53.346;-6.554;2022-12-29T11:18:25;98795.51;;;7.98;53.30
40372;BME280;28564;53.346;-6.554;2022-12-29T11:20:55;98797.02;;;7.65;53.16
40372;BME280;28564;53.346;-6.554;2022-12-29T11:23:26;98800.10;;;7.71;53.23
40372;BME280;28564;53.346;-6.554;2022-12-29T11:26:28;98805.82;;;7.59;53.22
40372;BME280;28564;53.346;-6.554;2022-12-29T11:29:29;98807.08;;;7.54;53.31
40372;BME280;28564;53.346;-6.554;2022-12-29T11:32:11;98806.79;;;7.58;53.19
40372;BME280;28564;53.346;-6.554;2022-12-29T11:34:39;98799.46;;;7.64;53.28
40372;BME280;28564;53.346;-6.554;2022-12-29T11:37:11;98809.78;;;7.69;53.23
40372;BME280;28564;53.346;-6.554;2022-12-29T11:39:41;98814.78;;;7.77;53.24
40372;BME280;28564;53.346;-6.554;2022-12-29T11:42:15;98809.21;;;7.84;53.07
40372;BME280;28564;53.346;-6.554;2022-12-29T11:44:45;98833.79;;;7.89;53.01
40372;BME280;28564;53.346;-6.554;2022-12-29T11:47:24;98807.79;;;7.88;53.32
40372;BME280;28564;53.346;-6.554;2022-12-29T11:49:55;98819.07;;;7.99;53.03
40372;BME280;28564;53.346;-6.554;2022-12-29T11:52:26;98829.06;;;8.04;52.92
40372;BME280;28564;53.346;-6.554;2022-12-29T11:54:55;98827.70;;;8.04;52.83
40372;BME280;28564;53.346;-6.554;2022-12-29T11:57:24;98826.40;;;8.09;52.76
40372;BME280;28564;53.346;-6.554;2022-12-29T11:59:53;98838.12;;;8.08;52.58
40372;BME280;28564;53.346;-6.554;2022-12-29T12:02:56;98840.15;;;7.79;52.52
40372;BME280;28564;53.346;-6.554;2022-12-29T12:05:35;98844.21;;;7.95;52.61
40372;BME280;28564;53.346;-6.554;2022-12-29T12:08:10;98849.10;;;7.78;52.69
40372;BME280;28564;53.346;-6.554;2022-12-29T12:10:43;98851.03;;;8.13;52.56
40372;BME280;28564;53.346;-6.554;2022-12-29T12:13:19;98855.78;;;8.31;52.15
40372;BME280;28564;53.346;-6.554;2022-12-29T12:15:52;98855.61;;;8.37;52.03
40372;BME280;28564;53.346;-6.554;2022-12-29T12:18:32;98864.50;;;8.35;52.38
40372;BME280;28564;53.346;-6.554;2022-12-29T12:21:08;98865.03;;;8.22;52.27
40372;BME280;28564;53.346;-6.554;2022-12-29T12:23:54;98874.16;;;8.28;51.99
40372;BME280;28564;53.346;-6.554;2022-12-29T12:26:32;98878.14;;;8.39;51.65
40372;BME280;28564;53.346;-6.554;2022-12-29T12:29:05;98871.88;;;8.64;51.19
40372;BME280;28564;53.346;-6.554;2022-12-29T12:31:44;98894.49;;;8.99;50.71
40372;BME280;28564;53.346;-6.554;2022-12-29T12:34:17;98896.20;;;9.23;50.41
40372;BME280;28564;53.346;-6.554;2022-12-29T12:37:10;98895.16;;;9.63;50.05
40372;BME280;28564;53.346;-6.554;2022-12-29T12:39:49;98886.18;;;9.45;48.80
40372;BME280;28564;53.346;-6.554;2022-12-29T12:42:33;98911.21;;;9.95;48.06
40372;BME280;28564;53.346;-6.554;2022-12-29T12:45:36;98909.60;;;9.40;48.10
40372;BME280;28564;53.346;-6.554;2022-12-29T12:48:19;98903.89;;;9.54;47.56
40372;BME280;28564;53.346;-6.554;2022-12-29T12:50:59;98909.10;;;9.38;47.37
40372;BME280;28564;53.346;-6.554;2022-12-29T12:53:40;98905.06;;;9.45;47.42
40372;BME280;28564;53.346;-6.554;2022-12-29T12:56:25;98914.77;;;8.83;47.05
40372;BME280;28564;53.346;-6.554;2022-12-29T12:58:59;98916.93;;;9.24;46.84
40372;BME280;28564;53.346;-6.554;2022-12-29T13:01:37;98917.09;;;9.24;47.05
40372;BME280;28564;53.346;-6.554;2022-12-29T13:04:32;98919.39;;;9.30;46.85
40372;BME280;28564;53.346;-6.554;2022-12-29T13:07:15;98933.96;;;9.33;46.73
40372;BME280;28564;53.346;-6.554;2022-12-29T13:10:00;98928.84;;;9.30;46.67
40372;BME280;28564;53.346;-6.554;2022-12-29T13:12:36;98937.69;;;9.30;46.87
40372;BME280;28564;53.346;-6.554;2022-12-29T13:15:17;98950.10;;;9.25;47.05
40372;BME280;28564;53.346;-6.554;2022-12-29T13:17:51;98951.16;;;9.15;47.13
40372;BME280;28564;53.346;-6.554;2022-12-29T13:20:29;98951.97;;;9.03;47.22
40372;BME280;28564;53.346;-6.554;2022-12-29T13:23:06;98956.67;;;8.95;47.13